sensor_id;sensor_type;location;lat;lon;timestamp;temperature;humidity
17333;DHT22;8784;50.94667800;7.08448400;2023-04-24T00:00:20;12.90;99.90
17333;DHT22;8784;50.94667800;7.08448400;2023-04-24T00:02:47;12.90;99.90
17333;DHT22;8784;50.94667800;7.08448400;2023-04-24T00:05:14;12.80;99.90
17333;DHT22;8784;50.94667800;7.08448400;2023-04-24T00:07:44;12.80;99.90
17333;DHT22;8784;50.94667800;7.08448400;2023-04-24T00:10:11;12.80;99.90
17333;DHT22;8784;50.94667800;7.08448400;2023-04-24T00:12:38;12.80;99.90
17333;DHT22;8784;50.94667800;7.08448400;2023-04-24T00:15:06;12.80;99.90
17333;DHT22;8784;50.94667800;7.08448400;2023-04-24T00:17:33;12.80;99.90
17333;DHT22;8784;50.94667800;7.08448400;2023-04-24T00:20:00;12.80;99.90
17333;DHT22;8784;50.94667800;7.08448400;2023-04-24T00:22:30;12.90;99.90
17333;DHT22;8784;50.94667800;7.08448400;2023-04-24T00:24:58;12.90;99.90
17333;DHT22;8784;50.94667800;7.08448400;2023-04-24T00:27:25;12.90;99.90
17333;DHT22;8784;50.94667800;7.08448400;2023-04-24T00:29:52;12.90;99.90
17333;DHT22;8784;50.94667800;7.08448400;2023-04-24T00:32:19;13.00;99.90
17333;DHT22;8784;50.94667800;7.08448400;2023-04-24T00:34:46;12.90;99.90
17333;DHT22;8784;50.94667800;7.08448400;2023-04-24T00:37:12;12.80;99.90
17333;DHT22;8784;50.94667800;7.08448400;2023-04-24T00:39:40;12.80;99.90
17333;DHT22;8784;50.94667800;7.08448400;2023-04-24T00:42:08;12.80;99.90
17333;DHT22;8784;50.94667800;7.08448400;2023-04-24T00:44:35;12.90;99.90
17333;DHT22;8784;50.94667800;7.08448400;2023-04-24T00:47:02;12.90;99.90
17333;DHT22;8784;50.94667800;7.08448400;2023-04-24T00:49:29;12.90;99.90
17333;DHT22;8784;50.94667800;7.08448400;2023-04-24T00:51:56;12.90;99.90
17333;DHT22;8784;50.94667800;7.08448400;2023-04-24T00:54:25;12.90;99.90
17333;DHT22;8784;50.94667800;7.08448400;2023-04-24T00:56:51;12.90;99.90
17333;DHT22;8784;50.94667800;7.08448400;2023-04-24T00:59:20;13.00;99.90
17333;DHT22;8784;50.94667800;7.08448400;2023-04-24T01:01:46;13.00;99.90
17333;DHT22;8784;50.94667800;7.08448400;2023-04-24T01:04:14;13.00;99.90
17333;DHT22;8784;50.94667800;7.08448400;2023-04-24T01:06:44;13.00;99.90
17333;DHT22;8784;50.94667800;7.08448400;2023-04-24T01:09:12;13.10;99.90
17333;DHT22;8784;50.94667800;7.08448400;2023-04-24T01:11:41;13.10;99.90
17333;DHT22;8784;50.94667800;7.08448400;2023-04-24T01:14:08;13.10;99.90
17333;DHT22;8784;50.94667800;7.08448400;2023-04-24T01:16:36;13.10;99.90
17333;DHT22;8784;50.94667800;7.08448400;2023-04-24T01:19:05;13.20;99.90
17333;DHT22;8784;50.94667800;7.08448400;2023-04-24T01:21:34;13.20;99.90
17333;DHT22;8784;50.94667800;7.08448400;2023-04-24T01:24:05;13.20;99.90
17333;DHT22;8784;50.94667800;7.08448400;2023-04-24T01:26:32;13.10;99.90
17333;DHT22;8784;50.94667800;7.08448400;2023-04-24T01:28:59;13.10;99.90
17333;DHT22;8784;50.94667800;7.08448400;2023-04-24T01:31:26;13.10;99.90
17333;DHT22;8784;50.94667800;7.08448400;2023-04-24T01:33:54;13.00;99.90
17333;DHT22;8784;50.94667800;7.08448400;2023-04-24T01:36:21;13.00;99.90
17333;DHT22;8784;50.94667800;7.08448400;2023-04-24T01:38:49;13.00;99.90
17333;DHT22;8784;50.94667800;7.08448400;2023-04-24T01:41:17;13.00;99.90
17333;DHT22;8784;50.94667800;7.08448400;2023-04-24T01:43:45;13.10;99.90
17333;DHT22;8784;50.94667800;7.08448400;2023-04-24T01:46:12;13.00;99.90
17333;DHT22;8784;50.94667800;7.08448400;2023-04-24T01:48:40;12.90;99.90
17333;DHT22;8784;50.94667800;7.08448400;2023-04-24T01:51:13;13.00;99.90
17333;DHT22;8784;50.94667800;7.08448400;2023-04-24T01:53:40;13.00;99.90
17333;DHT22;8784;50.94667800;7.08448400;2023-04-24T01:56:07;12.90;99.90
17333;DHT22;8784;50.94667800;7.08448400;2023-04-24T01:58:35;12.90;99.90
17333;DHT22;8784;50.94667800;7.08448400;2023-04-24T02:01:02;12.90;99.90
17333;DHT22;8784;50.94667800;7.08448400;2023-04-24T02:03:29;12.90;99.90
17333;DHT22;8784;50.94667800;7.08448400;2023-04-24T02:05:56;12.90;99.90
17333;DHT22;8784;50.94667800;7.08448400;2023-04-24T02:08:23;12.90;99.90
17333;DHT22;8784;50.94667800;7.08448400;2023-04-24T02:10:50;12.80;99.90
17333;DHT22;8784;50.94667800;7.08448400;2023-04-24T02:13:16;12.70;99.90
17333;DHT22;8784;50.94667800;7.08448400;2023-04-24T02:15:45;12.70;99.90
17333;DHT22;8784;50.94667800;7.08448400;2023-04-24T02:18:11;12.60;99.90
17333;DHT22;8784;50.94667800;7.08448400;2023-04-24T02:20:38;12.50;99.90
17333;DHT22;8784;50.94667800;7.08448400;2023-04-24T02:23:05;12.40;99.90
17333;DHT22;8784;50.94667800;7.08448400;2023-04-24T02:25:33;12.40;99.90
17333;DHT22;8784;50.94667800;7.08448400;2023-04-24T02:28:00;12.40;99.90
17333;DHT22;8784;50.94667800;7.08448400;2023-04-24T02:30:27;12.30;99.90
17333;DHT22;8784;50.94667800;7.08448400;2023-04-24T02:32:55;12.30;99.90
17333;DHT22;8784;50.94667800;7.08448400;2023-04-24T02:35:22;12.20;99.90
17333;DHT22;8784;50.94667800;7.08448400;2023-04-24T02:37:49;12.00;99.90
17333;DHT22;8784;50.94667800;7.08448400;2023-04-24T02:40:16;12.00;99.90
17333;DHT22;8784;50.94667800;7.08448400;2023-04-24T02:42:43;12.00;99.90
17333;DHT22;8784;50.94667800;7.08448400;2023-04-24T02:45:10;11.80;99.90
17333;DHT22;8784;50.94667800;7.08448400;2023-04-24T02:47:37;11.70;99.90
17333;DHT22;8784;50.94667800;7.08448400;2023-04-24T02:50:07;11.70;99.90
17333;DHT22;8784;50.94667800;7.08448400;2023-04-24T02:52:34;11.70;99.90
17333;DHT22;8784;50.94667800;7.08448400;2023-04-24T02:55:01;11.70;99.90
17333;DHT22;8784;50.94667800;7.08448400;2023-04-24T02:57:28;11.70;99.90
17333;DHT22;8784;50.94667800;7.08448400;2023-04-24T02:59:54;11.70;99.90
17333;DHT22;8784;50.94667800;7.08448400;2023-04-24T03:02:21;11.70;99.90
17333;DHT22;8784;50.94667800;7.08448400;2023-04-24T03:04:48;11.70;99.90
17333;DHT22;8784;50.94667800;7.08448400;2023-04-24T03:07:16;11.70;99.90
17333;DHT22;8784;50.94667800;7.08448400;2023-04-24T03:09:46;11.80;99.90
17333;DHT22;8784;50.94667800;7.08448400;2023-04-24T03:12:13;11.80;99.90
17333;DHT22;8784;50.94667800;7.08448400;2023-04-24T03:14:40;11.70;99.90
17333;DHT22;8784;50.94667800;7.08448400;2023-04-24T03:17:06;11.70;99.90
17333;DHT22;8784;50.94667800;7.08448400;2023-04-24T03:19:33;11.80;99.90
17333;DHT22;8784;50.94667800;7.08448400;2023-04-24T03:22:01;11.70;99.90
17333;DHT22;8784;50.94667800;7.08448400;2023-04-24T03:24:29;11.70;99.90
17333;DHT22;8784;50.94667800;7.08448400;2023-04-24T03:26:57;11.70;99.90
17333;DHT22;8784;50.94667800;7.08448400;2023-04-24T03:29:23;11.70;99.90
17333;DHT22;8784;50.94667800;7.08448400;2023-04-24T03:31:50;11.70;99.90
17333;DHT22;8784;50.94667800;7.08448400;2023-04-24T03:34:17;11.60;99.90
17333;DHT22;8784;50.94667800;7.08448400;2023-04-24T03:36:44;11.50;99.90
17333;DHT22;8784;50.94667800;7.08448400;2023-04-24T03:39:12;11.40;99.90
17333;DHT22;8784;50.94667800;7.08448400;2023-04-24T03:41:41;11.40;99.90
17333;DHT22;8784;50.94667800;7.08448400;2023-04-24T03:44:07;11.40;99.90
17333;DHT22;8784;50.94667800;7.08448400;2023-04-24T03:46:34;11.40;99.90
17333;DHT22;8784;50.94667800;7.08448400;2023-04-24T03:49:01;11.40;99.90
17333;DHT22;8784;50.94667800;7.08448400;2023-04-24T03:51:28;11.40;99.90
17333;DHT22;8784;50.94667800;7.08448400;2023-04-24T03:53:56;11.40;99.90
17333;DHT22;8784;50.94667800;7.08448400;2023-04-24T03:56:23;11.40;99.90
17333;DHT22;8784;50.94667800;7.08448400;2023-04-24T03:58:51;11.30;99.90
17333;DHT22;8784;50.94667800;7.08448400;2023-04-24T04:01:18;11.30;99.90
17333;DHT22;8784;50.94667800;7.08448400;2023-04-24T04:03:46;11.30;99.90
17333;DHT22;8784;50.94667800;7.08448400;2023-04-24T04:06:13;11.30;99.90
17333;DHT22;8784;50.94667800;7.08448400;2023-04-24T04:08:40;11.30;99.90
17333;DHT22;8784;50.94667800;7.08448400;2023-04-24T04:11:08;11.20;99.90
17333;DHT22;8784;50.94667800;7.08448400;2023-04-24T04:13:34;11.30;99.90
17333;DHT22;8784;50.94667800;7.08448400;2023-04-24T04:16:03;11.30;99.90
17333;DHT22;8784;50.94667800;7.08448400;2023-04-24T04:18:30;11.40;99.90
17333;DHT22;8784;50.94667800;7.08448400;2023-04-24T04:20:57;11.40;99.90
17333;DHT22;8784;50.94667800;7.08448400;2023-04-24T04:23:24;11.50;99.90
17333;DHT22;8784;50.94667800;7.08448400;2023-04-24T04:25:51;11.50;99.90
17333;DHT22;8784;50.94667800;7.08448400;2023-04-24T04:28:18;11.40;99.90
17333;DHT22;8784;50.94667800;7.08448400;2023-04-24T04:30:46;11.40;99.90
17333;DHT22;8784;50.94667800;7.08448400;2023-04-24T04:33:15;11.40;99.90
17333;DHT22;8784;50.94667800;7.08448400;2023-04-24T04:35:41;11.40;99.90
17333;DHT22;8784;50.94667800;7.08448400;2023-04-24T04:38:09;11.40;99.90
17333;DHT22;8784;50.94667800;7.08448400;2023-04-24T04:40:36;11.40;99.90
17333;DHT22;8784;50.94667800;7.08448400;2023-04-24T04:43:03;11.40;99.90
17333;DHT22;8784;50.94667800;7.08448400;2023-04-24T04:45:30;11.40;99.90
17333;DHT22;8784;50.94667800;7.08448400;2023-04-24T04:47:58;11.30;99.90
17333;DHT22;8784;50.94667800;7.08448400;2023-04-24T04:50:27;11.30;99.90
17333;DHT22;8784;50.94667800;7.08448400;2023-04-24T04:52:54;11.20;99.90
17333;DHT22;8784;50.94667800;7.08448400;2023-04-24T04:55:21;11.20;99.90
17333;DHT22;8784;50.94667800;7.08448400;2023-04-24T04:57:48;11.30;99.90
17333;DHT22;8784;50.94667800;7.08448400;2023-04-24T05:00:15;11.20;99.90
17333;DHT22;8784;50.94667800;7.08448400;2023-04-24T05:02:42;11.20;99.90
17333;DHT22;8784;50.94667800;7.08448400;2023-04-24T05:05:10;11.30;99.90
17333;DHT22;8784;50.94667800;7.08448400;2023-04-24T05:07:38;11.30;99.90
17333;DHT22;8784;50.94667800;7.08448400;2023-04-24T05:10:06;11.30;99.90
17333;DHT22;8784;50.94667800;7.08448400;2023-04-24T05:12:33;11.30;99.90
17333;DHT22;8784;50.94667800;7.08448400;2023-04-24T05:15:00;11.20;99.90
17333;DHT22;8784;50.94667800;7.08448400;2023-04-24T05:17:27;11.10;99.90
17333;DHT22;8784;50.94667800;7.08448400;2023-04-24T05:19:54;11.10;99.90
17333;DHT22;8784;50.94667800;7.08448400;2023-04-24T05:22:21;11.00;99.90
17333;DHT22;8784;50.94667800;7.08448400;2023-04-24T05:24:50;11.00;99.90
17333;DHT22;8784;50.94667800;7.08448400;2023-04-24T05:27:17;11.00;99.90
17333;DHT22;8784;50.94667800;7.08448400;2023-04-24T05:29:44;11.10;99.90
17333;DHT22;8784;50.94667800;7.08448400;2023-04-24T05:32:11;11.10;99.90
17333;DHT22;8784;50.94667800;7.08448400;2023-04-24T05:34:37;11.00;99.90
17333;DHT22;8784;50.94667800;7.08448400;2023-04-24T05:37:04;11.00;99.90
17333;DHT22;8784;50.94667800;7.08448400;2023-04-24T05:39:34;11.00;99.90
17333;DHT22;8784;50.94667800;7.08448400;2023-04-24T05:42:03;11.00;99.90
17333;DHT22;8784;50.94667800;7.08448400;2023-04-24T05:44:30;10.90;99.90
17333;DHT22;8784;50.94667800;7.08448400;2023-04-24T05:46:57;10.90;99.90
17333;DHT22;8784;50.94667800;7.08448400;2023-04-24T05:49:24;10.80;99.90
17333;DHT22;8784;50.94667800;7.08448400;2023-04-24T05:51:51;10.70;99.90
17333;DHT22;8784;50.94667800;7.08448400;2023-04-24T05:54:18;10.70;99.90
17333;DHT22;8784;50.94667800;7.08448400;2023-04-24T05:56:45;10.70;99.90
17333;DHT22;8784;50.94667800;7.08448400;2023-04-24T05:59:13;10.70;99.90
17333;DHT22;8784;50.94667800;7.08448400;2023-04-24T06:01:40;10.70;99.90
17333;DHT22;8784;50.94667800;7.08448400;2023-04-24T06:04:08;10.60;99.90
17333;DHT22;8784;50.94667800;7.08448400;2023-04-24T06:06:35;10.50;99.90
17333;DHT22;8784;50.94667800;7.08448400;2023-04-24T06:09:02;10.40;99.90
17333;DHT22;8784;50.94667800;7.08448400;2023-04-24T06:11:29;10.40;99.90
17333;DHT22;8784;50.94667800;7.08448400;2023-04-24T06:13:56;10.40;99.90
17333;DHT22;8784;50.94667800;7.08448400;2023-04-24T06:16:24;10.40;99.90
17333;DHT22;8784;50.94667800;7.08448400;2023-04-24T06:18:51;10.40;99.90
17333;DHT22;8784;50.94667800;7.08448400;2023-04-24T06:21:18;10.40;99.90
17333;DHT22;8784;50.94667800;7.08448400;2023-04-24T06:23:45;10.50;99.90
17333;DHT22;8784;50.94667800;7.08448400;2023-04-24T06:26:12;10.50;99.90
17333;DHT22;8784;50.94667800;7.08448400;2023-04-24T06:28:40;10.50;99.90
17333;DHT22;8784;50.94667800;7.08448400;2023-04-24T06:31:06;10.30;99.90
17333;DHT22;8784;50.94667800;7.08448400;2023-04-24T06:33:35;10.30;99.90
17333;DHT22;8784;50.94667800;7.08448400;2023-04-24T06:36:01;10.30;99.90
17333;DHT22;8784;50.94667800;7.08448400;2023-04-24T06:38:29;10.20;99.90
17333;DHT22;8784;50.94667800;7.08448400;2023-04-24T06:40:56;10.10;99.90
17333;DHT22;8784;50.94667800;7.08448400;2023-04-24T06:43:23;10.00;99.90
17333;DHT22;8784;50.94667800;7.08448400;2023-04-24T06:45:50;10.00;99.90
17333;DHT22;8784;50.94667800;7.08448400;2023-04-24T06:48:17;10.00;99.90
17333;DHT22;8784;50.94667800;7.08448400;2023-04-24T06:50:45;10.10;99.90
17333;DHT22;8784;50.94667800;7.08448400;2023-04-24T06:53:12;10.20;99.90
17333;DHT22;8784;50.94667800;7.08448400;2023-04-24T06:55:40;10.20;99.90
17333;DHT22;8784;50.94667800;7.08448400;2023-04-24T06:58:08;10.20;99.90
17333;DHT22;8784;50.94667800;7.08448400;2023-04-24T07:00:35;10.00;99.90
17333;DHT22;8784;50.94667800;7.08448400;2023-04-24T07:03:03;10.10;99.90
17333;DHT22;8784;50.94667800;7.08448400;2023-04-24T07:05:30;10.10;99.90
17333;DHT22;8784;50.94667800;7.08448400;2023-04-24T07:08:01;10.00;99.90
17333;DHT22;8784;50.94667800;7.08448400;2023-04-24T07:10:28;10.00;99.90
17333;DHT22;8784;50.94667800;7.08448400;2023-04-24T07:12:55;10.10;99.90
17333;DHT22;8784;50.94667800;7.08448400;2023-04-24T07:15:22;10.00;99.90
17333;DHT22;8784;50.94667800;7.08448400;2023-04-24T07:17:50;10.00;99.90
17333;DHT22;8784;50.94667800;7.08448400;2023-04-24T07:20:17;9.90;99.90
17333;DHT22;8784;50.94667800;7.08448400;2023-04-24T07:22:44;9.90;99.90
17333;DHT22;8784;50.94667800;7.08448400;2023-04-24T07:25:12;9.90;99.90
17333;DHT22;8784;50.94667800;7.08448400;2023-04-24T07:27:39;10.00;99.90
17333;DHT22;8784;50.94667800;7.08448400;2023-04-24T07:30:06;10.00;99.90
17333;DHT22;8784;50.94667800;7.08448400;2023-04-24T07:32:34;9.90;99.90
17333;DHT22;8784;50.94667800;7.08448400;2023-04-24T07:35:04;10.00;99.90
17333;DHT22;8784;50.94667800;7.08448400;2023-04-24T07:37:31;9.90;99.90
17333;DHT22;8784;50.94667800;7.08448400;2023-04-24T07:39:58;9.90;99.90
17333;DHT22;8784;50.94667800;7.08448400;2023-04-24T07:42:28;10.00;99.90
17333;DHT22;8784;50.94667800;7.08448400;2023-04-24T07:44:55;10.00;99.90
17333;DHT22;8784;50.94667800;7.08448400;2023-04-24T07:47:23;10.00;99.90
17333;DHT22;8784;50.94667800;7.08448400;2023-04-24T07:49:50;10.00;99.90
17333;DHT22;8784;50.94667800;7.08448400;2023-04-24T07:52:17;10.00;99.90
17333;DHT22;8784;50.94667800;7.08448400;2023-04-24T07:54:45;9.80;99.90
17333;DHT22;8784;50.94667800;7.08448400;2023-04-24T07:57:13;9.80;99.90
17333;DHT22;8784;50.94667800;7.08448400;2023-04-24T07:59:42;9.70;99.90
17333;DHT22;8784;50.94667800;7.08448400;2023-04-24T08:02:09;9.70;99.90
17333;DHT22;8784;50.94667800;7.08448400;2023-04-24T08:04:36;9.70;99.90
17333;DHT22;8784;50.94667800;7.08448400;2023-04-24T08:07:03;9.70;99.90
17333;DHT22;8784;50.94667800;7.08448400;2023-04-24T08:09:30;9.60;99.90
17333;DHT22;8784;50.94667800;7.08448400;2023-04-24T08:11:57;9.60;99.90
17333;DHT22;8784;50.94667800;7.08448400;2023-04-24T08:14:24;9.50;99.90
17333;DHT22;8784;50.94667800;7.08448400;2023-04-24T08:16:53;9.40;99.90
17333;DHT22;8784;50.94667800;7.08448400;2023-04-24T08:19:20;9.40;99.90
17333;DHT22;8784;50.94667800;7.08448400;2023-04-24T08:21:47;9.50;99.90
17333;DHT22;8784;50.94667800;7.08448400;2023-04-24T08:24:14;9.50;99.90
17333;DHT22;8784;50.94667800;7.08448400;2023-04-24T08:26:41;9.60;99.90
17333;DHT22;8784;50.94667800;7.08448400;2023-04-24T08:29:08;9.50;99.90
17333;DHT22;8784;50.94667800;7.08448400;2023-04-24T08:31:35;9.50;99.90
17333;DHT22;8784;50.94667800;7.08448400;2023-04-24T08:34:03;9.40;99.90
17333;DHT22;8784;50.94667800;7.08448400;2023-04-24T08:36:31;9.30;99.90
17333;DHT22;8784;50.94667800;7.08448400;2023-04-24T08:38:59;9.20;99.90
17333;DHT22;8784;50.94667800;7.08448400;2023-04-24T08:41:27;9.20;99.90
17333;DHT22;8784;50.94667800;7.08448400;2023-04-24T08:43:55;9.10;99.90
17333;DHT22;8784;50.94667800;7.08448400;2023-04-24T08:46:24;9.10;99.90
17333;DHT22;8784;50.94667800;7.08448400;2023-04-24T08:48:52;9.10;99.90
17333;DHT22;8784;50.94667800;7.08448400;2023-04-24T08:51:20;9.00;99.90
17333;DHT22;8784;50.94667800;7.08448400;2023-04-24T08:53:48;9.00;99.90
17333;DHT22;8784;50.94667800;7.08448400;2023-04-24T08:56:15;9.10;99.90
17333;DHT22;8784;50.94667800;7.08448400;2023-04-24T08:58:43;9.10;99.90
17333;DHT22;8784;50.94667800;7.08448400;2023-04-24T09:01:11;9.00;99.90
17333;DHT22;8784;50.94667800;7.08448400;2023-04-24T09:03:39;9.00;99.90
17333;DHT22;8784;50.94667800;7.08448400;2023-04-24T09:06:08;9.00;99.90
17333;DHT22;8784;50.94667800;7.08448400;2023-04-24T09:08:38;9.00;99.90
17333;DHT22;8784;50.94667800;7.08448400;2023-04-24T09:11:06;9.00;99.90
17333;DHT22;8784;50.94667800;7.08448400;2023-04-24T09:13:33;9.10;99.90
17333;DHT22;8784;50.94667800;7.08448400;2023-04-24T09:16:00;9.10;99.90
17333;DHT22;8784;50.94667800;7.08448400;2023-04-24T09:18:27;9.10;99.90
17333;DHT22;8784;50.94667800;7.08448400;2023-04-24T09:20:58;9.10;99.90
17333;DHT22;8784;50.94667800;7.08448400;2023-04-24T09:23:26;9.10;99.90
17333;DHT22;8784;50.94667800;7.08448400;2023-04-24T09:25:56;9.20;99.90
17333;DHT22;8784;50.94667800;7.08448400;2023-04-24T09:28:26;9.10;99.90
17333;DHT22;8784;50.94667800;7.08448400;2023-04-24T09:31:05;9.10;99.90
17333;DHT22;8784;50.94667800;7.08448400;2023-04-24T09:33:32;9.30;99.90
17333;DHT22;8784;50.94667800;7.08448400;2023-04-24T09:36:00;9.30;99.90
17333;DHT22;8784;50.94667800;7.08448400;2023-04-24T09:38:31;9.30;99.90
17333;DHT22;8784;50.94667800;7.08448400;2023-04-24T09:41:01;9.30;99.90
17333;DHT22;8784;50.94667800;7.08448400;2023-04-24T09:43:29;9.30;99.90
17333;DHT22;8784;50.94667800;7.08448400;2023-04-24T09:45:57;9.40;99.90
17333;DHT22;8784;50.94667800;7.08448400;2023-04-24T09:48:31;9.50;99.90
17333;DHT22;8784;50.94667800;7.08448400;2023-04-24T09:50:59;9.60;99.90
17333;DHT22;8784;50.94667800;7.08448400;2023-04-24T09:53:27;9.70;99.90
17333;DHT22;8784;50.94667800;7.08448400;2023-04-24T09:55:54;9.80;99.90
17333;DHT22;8784;50.94667800;7.08448400;2023-04-24T09:58:26;9.80;99.90
17333;DHT22;8784;50.94667800;7.08448400;2023-04-24T10:00:54;9.90;99.90
17333;DHT22;8784;50.94667800;7.08448400;2023-04-24T10:03:24;10.00;99.90
17333;DHT22;8784;50.94667800;7.08448400;2023-04-24T10:05:52;10.00;99.90
17333;DHT22;8784;50.94667800;7.08448400;2023-04-24T10:08:19;10.20;99.90
17333;DHT22;8784;50.94667800;7.08448400;2023-04-24T10:10:47;10.30;99.90
17333;DHT22;8784;50.94667800;7.08448400;2023-04-24T10:13:14;10.40;99.90
17333;DHT22;8784;50.94667800;7.08448400;2023-04-24T10:15:43;10.60;99.90
17333;DHT22;8784;50.94667800;7.08448400;2023-04-24T10:18:10;10.60;99.90
17333;DHT22;8784;50.94667800;7.08448400;2023-04-24T10:20:39;10.60;99.90
17333;DHT22;8784;50.94667800;7.08448400;2023-04-24T10:23:06;10.70;99.90
17333;DHT22;8784;50.94667800;7.08448400;2023-04-24T10:25:35;10.80;99.90
17333;DHT22;8784;50.94667800;7.08448400;2023-04-24T10:28:03;10.90;99.90
17333;DHT22;8784;50.94667800;7.08448400;2023-04-24T10:30:32;11.10;99.90
17333;DHT22;8784;50.94667800;7.08448400;2023-04-24T10:33:03;11.40;99.90
17333;DHT22;8784;50.94667800;7.08448400;2023-04-24T10:35:31;11.60;99.90
17333;DHT22;8784;50.94667800;7.08448400;2023-04-24T10:38:03;11.70;99.90
17333;DHT22;8784;50.94667800;7.08448400;2023-04-24T10:40:31;11.80;99.90
17333;DHT22;8784;50.94667800;7.08448400;2023-04-24T10:43:01;12.10;99.90
17333;DHT22;8784;50.94667800;7.08448400;2023-04-24T10:45:28;12.20;99.90
17333;DHT22;8784;50.94667800;7.08448400;2023-04-24T10:48:00;12.20;99.90
17333;DHT22;8784;50.94667800;7.08448400;2023-04-24T10:50:42;12.30;99.90
17333;DHT22;8784;50.94667800;7.08448400;2023-04-24T10:53:13;12.30;99.90
17333;DHT22;8784;50.94667800;7.08448400;2023-04-24T10:55:43;12.30;99.90
17333;DHT22;8784;50.94667800;7.08448400;2023-04-24T10:58:10;12.20;99.90
17333;DHT22;8784;50.94667800;7.08448400;2023-04-24T11:00:38;12.20;99.90
17333;DHT22;8784;50.94667800;7.08448400;2023-04-24T11:03:05;12.20;99.90
17333;DHT22;8784;50.94667800;7.08448400;2023-04-24T11:05:57;12.10;99.90
17333;DHT22;8784;50.94667800;7.08448400;2023-04-24T11:08:30;12.00;99.90
17333;DHT22;8784;50.94667800;7.08448400;2023-04-24T11:10:59;11.90;99.90
17333;DHT22;8784;50.94667800;7.08448400;2023-04-24T11:13:28;11.80;99.90
17333;DHT22;8784;50.94667800;7.08448400;2023-04-24T11:16:15;11.70;99.90
17333;DHT22;8784;50.94667800;7.08448400;2023-04-24T11:18:50;11.60;99.90
17333;DHT22;8784;50.94667800;7.08448400;2023-04-24T11:21:22;11.50;99.90
17333;DHT22;8784;50.94667800;7.08448400;2023-04-24T11:23:49;11.40;99.90
17333;DHT22;8784;50.94667800;7.08448400;2023-04-24T11:26:18;11.20;99.90
17333;DHT22;8784;50.94667800;7.08448400;2023-04-24T11:28:50;11.00;99.90
17333;DHT22;8784;50.94667800;7.08448400;2023-04-24T11:31:37;10.80;99.90
17333;DHT22;8784;50.94667800;7.08448400;2023-04-24T11:34:08;10.70;99.90
17333;DHT22;8784;50.94667800;7.08448400;2023-04-24T11:36:37;10.60;99.90
17333;DHT22;8784;50.94667800;7.08448400;2023-04-24T11:39:04;10.70;99.90
17333;DHT22;8784;50.94667800;7.08448400;2023-04-24T11:41:32;10.70;99.90
17333;DHT22;8784;50.94667800;7.08448400;2023-04-24T11:44:00;10.80;99.90
17333;DHT22;8784;50.94667800;7.08448400;2023-04-24T11:46:28;10.90;99.90
17333;DHT22;8784;50.94667800;7.08448400;2023-04-24T11:48:57;11.00;99.90
17333;DHT22;8784;50.94667800;7.08448400;2023-04-24T11:51:26;11.10;99.90
17333;DHT22;8784;50.94667800;7.08448400;2023-04-24T11:53:54;11.20;99.90
17333;DHT22;8784;50.94667800;7.08448400;2023-04-24T11:56:22;11.20;99.90
17333;DHT22;8784;50.94667800;7.08448400;2023-04-24T11:58:51;11.20;99.90
17333;DHT22;8784;50.94667800;7.08448400;2023-04-24T12:01:18;11.20;99.90
17333;DHT22;8784;50.94667800;7.08448400;2023-04-24T12:03:48;11.40;99.90
17333;DHT22;8784;50.94667800;7.08448400;2023-04-24T12:06:16;11.60;99.90
17333;DHT22;8784;50.94667800;7.08448400;2023-04-24T12:08:46;11.60;99.90
17333;DHT22;8784;50.94667800;7.08448400;2023-04-24T12:11:16;11.60;99.90
17333;DHT22;8784;50.94667800;7.08448400;2023-04-24T12:13:44;11.70;99.90
17333;DHT22;8784;50.94667800;7.08448400;2023-04-24T12:16:12;11.80;99.90
17333;DHT22;8784;50.94667800;7.08448400;2023-04-24T12:18:44;12.10;99.90
17333;DHT22;8784;50.94667800;7.08448400;2023-04-24T12:21:18;12.50;99.90
17333;DHT22;8784;50.94667800;7.08448400;2023-04-24T12:23:45;12.70;99.90
17333;DHT22;8784;50.94667800;7.08448400;2023-04-24T12:26:16;12.80;99.90
17333;DHT22;8784;50.94667800;7.08448400;2023-04-24T12:28:46;12.70;99.90
17333;DHT22;8784;50.94667800;7.08448400;2023-04-24T12:31:13;12.70;99.90
17333;DHT22;8784;50.94667800;7.08448400;2023-04-24T12:33:40;12.80;99.90
17333;DHT22;8784;50.94667800;7.08448400;2023-04-24T12:36:10;13.10;99.90
17333;DHT22;8784;50.94667800;7.08448400;2023-04-24T12:38:38;13.40;99.90
17333;DHT22;8784;50.94667800;7.08448400;2023-04-24T12:41:07;13.70;99.90
17333;DHT22;8784;50.94667800;7.08448400;2023-04-24T12:43:36;13.80;99.90
17333;DHT22;8784;50.94667800;7.08448400;2023-04-24T12:46:03;13.80;99.90
17333;DHT22;8784;50.94667800;7.08448400;2023-04-24T12:48:31;13.80;99.90
17333;DHT22;8784;50.94667800;7.08448400;2023-04-24T12:50:58;13.80;99.90
17333;DHT22;8784;50.94667800;7.08448400;2023-04-24T12:53:27;13.90;99.90
17333;DHT22;8784;50.94667800;7.08448400;2023-04-24T12:55:55;14.10;99.90
17333;DHT22;8784;50.94667800;7.08448400;2023-04-24T12:58:22;14.40;99.90
17333;DHT22;8784;50.94667800;7.08448400;2023-04-24T13:00:51;14.50;99.90
17333;DHT22;8784;50.94667800;7.08448400;2023-04-24T13:03:18;14.40;99.90
17333;DHT22;8784;50.94667800;7.08448400;2023-04-24T13:05:45;14.30;99.90
17333;DHT22;8784;50.94667800;7.08448400;2023-04-24T13:08:12;14.10;99.90
17333;DHT22;8784;50.94667800;7.08448400;2023-04-24T13:10:39;14.00;99.90
17333;DHT22;8784;50.94667800;7.08448400;2023-04-24T13:13:07;13.90;99.90
17333;DHT22;8784;50.94667800;7.08448400;2023-04-24T13:15:35;13.70;99.90
17333;DHT22;8784;50.94667800;7.08448400;2023-04-24T13:18:03;13.80;99.90
17333;DHT22;8784;50.94667800;7.08448400;2023-04-24T13:20:30;14.00;99.90
17333;DHT22;8784;50.94667800;7.08448400;2023-04-24T13:22:57;14.10;99.90
17333;DHT22;8784;50.94667800;7.08448400;2023-04-24T13:25:24;14.10;99.90
17333;DHT22;8784;50.94667800;7.08448400;2023-04-24T13:27:52;14.20;99.90
17333;DHT22;8784;50.94667800;7.08448400;2023-04-24T13:30:19;14.30;99.90
17333;DHT22;8784;50.94667800;7.08448400;2023-04-24T13:32:46;14.30;99.90
17333;DHT22;8784;50.94667800;7.08448400;2023-04-24T13:35:14;14.30;99.90
17333;DHT22;8784;50.94667800;7.08448400;2023-04-24T13:37:41;14.30;99.90
17333;DHT22;8784;50.94667800;7.08448400;2023-04-24T13:40:09;14.30;99.90